Time;durP1;ratioP1;P1;durP2;ratioP2;P2;SDS_P1;SDS_P2;PMS_P1;PMS_P2;Temp;Humidity;BMP_temperature;BMP_pressure;BME280_temperature;BME280_humidity;BME280_pressure;Samples;Min_cycle;Max_cycle;Signal;HPM_P1;HPM_P2
2022/07/27 00:01:11;;;;;;;5.55;4.20;;;;;;;21.47;100.00;96256.00;5044427;28;20079;-48
2022/07/27 00:03:40;;;;;;;7.20;5.13;;;;;;;21.65;100.00;96249.91;5042535;28;20147;-50
2022/07/27 00:06:09;;;;;;;10.15;4.95;;;;;;;21.67;100.00;96254.00;5043624;28;20080;-54
2022/07/27 00:08:37;;;;;;;9.98;5.00;;;;;;;21.60;100.00;96245.19;5043545;28;20096;-53
2022/07/27 00:11:05;;;;;;;7.05;4.63;;;;;;;21.22;100.00;96246.03;5042382;28;20092;-49
2022/07/27 00:13:34;;;;;;;8.55;4.57;;;;;;;21.44;100.00;96249.25;5044330;28;20080;-47
2022/07/27 00:16:03;;;;;;;6.00;4.70;;;;;;;21.38;100.00;96239.38;5044597;28;20480;-47
2022/07/27 00:18:33;;;;;;;6.05;5.00;;;;;;;21.28;100.00;96233.63;5043999;28;20077;-53
2022/07/27 00:21:01;;;;;;;6.80;4.70;;;;;;;21.09;100.00;96233.56;5044710;28;20111;-49
2022/07/27 00:23:30;;;;;;;5.57;4.65;;;;;;;21.13;100.00;96228.59;5044210;28;20095;-51
2022/07/27 00:25:58;;;;;;;6.25;5.07;;;;;;;21.01;100.00;96225.75;5044202;28;20800;-49
2022/07/27 00:28:26;;;;;;;9.45;4.85;;;;;;;21.13;100.00;96227.75;5044780;28;20080;-53
2022/07/27 00:30:55;;;;;;;7.25;5.07;;;;;;;20.85;100.00;96235.16;5042102;28;20095;-49
2022/07/27 00:33:24;;;;;;;5.93;5.05;;;;;;;20.66;100.00;96235.25;5043032;28;20140;-50
2022/07/27 00:35:54;;;;;;;6.65;4.72;;;;;;;20.71;100.00;96228.19;5042380;28;20919;-49
2022/07/27 00:38:22;;;;;;;9.18;5.03;;;;;;;20.79;100.00;96232.50;5042986;28;20080;-48
2022/07/27 00:40:50;;;;;;;8.10;4.63;;;;;;;20.79;100.00;96222.59;5042233;28;20088;-55
2022/07/27 00:43:19;;;;;;;7.97;5.15;;;;;;;20.82;100.00;96216.81;5044785;28;20083;-53
2022/07/27 00:45:48;;;;;;;5.72;4.53;;;;;;;20.88;100.00;96212.44;5044201;28;20092;-47
2022/07/27 00:48:17;;;;;;;6.37;5.10;;;;;;;20.58;100.00;96215.72;5044175;28;20041;-51
2022/07/27 00:50:47;;;;;;;6.97;4.53;;;;;;;20.69;100.00;96221.44;5042031;28;21531;-53
2022/07/27 00:53:17;;;;;;;8.27;5.10;;;;;;;20.54;100.00;96219.84;5047135;28;20087;-49
2022/07/27 00:55:46;;;;;;;8.30;5.13;;;;;;;20.62;100.00;96224.13;5045235;28;20072;-47
2022/07/27 00:58:14;;;;;;;8.50;5.25;;;;;;;20.44;100.00;96224.81;5047095;28;20077;-48
2022/07/27 01:00:43;;;;;;;10.63;5.55;;;;;;;20.49;100.00;96222.31;5039893;28;20542;-53
2022/07/27 01:03:11;;;;;;;7.70;5.30;;;;;;;20.63;100.00;96225.78;5045253;28;20472;-47
2022/07/27 01:05:43;;;;;;;12.48;4.82;;;;;;;20.37;100.00;96226.66;5044085;28;20088;-47
2022/07/27 01:08:13;;;;;;;7.22;4.82;;;;;;;20.26;100.00;96230.81;5044880;28;20080;-48
2022/07/27 01:10:43;;;;;;;7.18;4.28;;;;;;;20.61;100.00;96235.88;5042716;28;20080;-51
2022/07/27 01:13:12;;;;;;;5.72;4.35;;;;;;;20.82;100.00;96224.03;5044376;28;20077;-54
2022/07/27 01:15:42;;;;;;;8.07;4.10;;;;;;;20.43;100.00;96211.63;5042556;28;20080;-49
2022/07/27 01:18:12;;;;;;;9.68;4.47;;;;;;;20.36;100.00;96195.56;5047020;28;20076;-48
2022/07/27 01:20:41;;;;;;;6.53;4.35;;;;;;;20.19;100.00;96194.41;5042672;28;20096;-51
2022/07/27 01:23:11;;;;;;;9.38;4.55;;;;;;;20.19;100.00;96195.22;5043383;28;20081;-54
2022/07/27 01:25:41;;;;;;;6.07;4.15;;;;;;;20.64;100.00;96187.22;5041099;28;20088;-54
2022/07/27 01:28:09;;;;;;;;;;;;;;;20.68;100.00;96201.84;5045070;28;20756;-47
2022/07/27 01:30:38;;;;;;;6.32;4.18;;;;;;;20.24;100.00;96195.41;5040218;28;19967;-48
2022/07/27 01:33:08;;;;;;;10.95;4.47;;;;;;;20.16;100.00;96198.31;5043959;28;20073;-47
2022/07/27 01:35:37;;;;;;;6.78;4.28;;;;;;;20.21;100.00;96197.69;5043510;28;22376;-49
2022/07/27 01:38:08;;;;;;;8.30;4.20;;;;;;;20.25;100.00;96182.84;5043738;28;20088;-53
2022/07/27 01:40:38;;;;;;;5.30;3.97;;;;;;;20.06;100.00;96176.50;5042058;28;20080;-49
2022/07/27 01:43:07;;;;;;;;;;;;;;;20.26;100.00;96169.22;5042956;28;20099;-46
2022/07/27 01:45:35;;;;;;;5.88;3.85;;;;;;;20.28;100.00;96171.72;5041328;28;20505;-54
2022/07/27 01:48:04;;;;;;;6.90;3.90;;;;;;;20.25;100.00;96180.16;5042857;28;20151;-48
2022/07/27 01:50:32;;;;;;;8.65;4.38;;;;;;;20.14;100.00;96176.31;5042156;28;20080;-52
2022/07/27 01:53:01;;;;;;;5.68;4.03;;;;;;;19.72;100.00;96166.94;5042747;28;20461;-47
2022/07/27 01:55:29;;;;;;;7.45;3.80;;;;;;;19.89;100.00;96176.19;5043698;28;20084;-46
2022/07/27 01:58:08;;;;;;;5.60;4.00;;;;;;;19.92;100.00;96168.56;5044463;28;20068;-48
2022/07/27 02:00:37;;;;;;;6.63;4.05;;;;;;;19.90;100.00;96165.25;5041174;28;20100;-48
2022/07/27 02:03:07;;;;;;;7.60;4.40;;;;;;;19.76;100.00;96170.84;5042070;28;20558;-52
2022/07/27 02:05:36;;;;;;;7.18;4.47;;;;;;;19.60;100.00;96167.53;5042710;28;20144;-49
2022/07/27 02:08:05;;;;;;;7.75;4.40;;;;;;;19.84;100.00;96155.38;5041533;28;20076;-46
2022/07/27 02:10:34;;;;;;;4.97;3.90;;;;;;;19.84;100.00;96162.59;5040574;28;20085;-51
2022/07/27 02:13:02;;;;;;;6.80;4.22;;;;;;;19.50;100.00;96166.34;5041375;28;20089;-48
2022/07/27 02:15:51;;;;;;;9.73;4.65;;;;;;;19.14;100.00;96172.94;5044047;28;20617;-49
2022/07/27 02:18:22;;;;;;;11.35;4.35;;;;;;;19.29;100.00;96170.88;5043249;28;20077;-51
2022/07/27 02:21:05;;;;;;;10.73;4.32;;;;;;;19.68;100.00;96164.69;5042821;28;20626;-46
2022/07/27 02:23:34;;;;;;;8.30;4.25;;;;;;;19.43;100.00;96164.47;5043174;28;20479;-48
2022/07/27 02:26:03;;;;;;;16.30;5.10;;;;;;;19.61;100.00;96171.88;5043520;28;20088;-53
2022/07/27 02:28:32;;;;;;;10.98;4.35;;;;;;;19.59;100.00;96170.44;5043039;28;20081;-47
2022/07/27 02:31:02;;;;;;;10.38;4.07;;;;;;;19.91;100.00;96169.56;5042400;28;21360;-55
2022/07/27 02:33:30;;;;;;;9.90;4.30;;;;;;;19.88;100.00;96175.34;5044635;28;20164;-52
2022/07/27 02:35:59;;;;;;;7.78;3.67;;;;;;;19.94;100.00;96187.06;5043860;28;20076;-52
2022/07/27 02:38:27;;;;;;;4.75;3.45;;;;;;;20.09;100.00;96184.94;5045679;28;20080;-55
2022/07/27 02:40:56;;;;;;;6.40;3.75;;;;;;;19.70;100.00;96187.75;5048683;28;20489;-55
2022/07/27 02:43:24;;;;;;;7.78;4.20;;;;;;;19.99;100.00;96178.41;5045606;28;20108;-48
2022/07/27 02:45:53;;;;;;;10.27;4.28;;;;;;;19.77;100.00;96183.19;5044627;28;20083;-51
2022/07/27 02:48:23;;;;;;;8.25;4.55;;;;;;;20.01;100.00;96181.69;5047544;28;20092;-46
2022/07/27 02:50:51;;;;;;;5.80;3.90;;;;;;;20.09;100.00;96184.13;5045619;28;20088;-49
2022/07/27 02:53:20;;;;;;;6.28;4.00;;;;;;;19.95;100.00;96185.22;5045404;28;20082;-60
2022/07/27 02:55:48;;;;;;;8.60;3.63;;;;;;;20.20;100.00;96190.69;5043994;28;20073;-53
2022/07/27 02:58:16;;;;;;;5.95;3.50;;;;;;;20.33;100.00;96191.44;5051713;28;20084;-51
2022/07/27 03:00:45;;;;;;;11.07;3.90;;;;;;;20.20;100.00;96191.53;5044848;28;20108;-50
2022/07/27 03:03:14;;;;;;;6.20;4.03;;;;;;;20.19;100.00;96197.06;5044692;28;20144;-48
2022/07/27 03:05:44;;;;;;;11.02;3.58;;;;;;;20.22;100.00;96188.63;5028303;28;20051;-47
2022/07/27 03:08:12;;;;;;;13.02;3.45;;;;;;;20.30;100.00;96189.22;5046029;28;20542;-50
2022/07/27 03:10:40;;;;;;;11.50;3.70;;;;;;;20.22;100.00;96181.41;5044809;28;20594;-50
2022/07/27 03:13:16;;;;;;;7.63;3.63;;;;;;;20.44;100.00;96181.97;5046858;28;20077;-48
2022/07/27 03:15:44;;;;;;;11.13;4.10;;;;;;;20.29;100.00;96176.84;5046422;28;20083;-47
2022/07/27 03:18:13;;;;;;;7.88;3.75;;;;;;;20.21;100.00;96184.31;5047895;28;20076;-48
2022/07/27 03:20:41;;;;;;;10.13;3.88;;;;;;;20.01;100.00;96185.19;5041008;28;20068;-54
2022/07/27 03:23:11;;;;;;;10.27;3.80;;;;;;;20.14;100.00;96184.34;5047231;28;20091;-52
2022/07/27 03:25:40;;;;;;;9.13;4.50;;;;;;;20.27;100.00;96184.28;5046065;28;20068;-48
2022/07/27 03:28:08;;;;;;;6.60;3.92;;;;;;;20.23;100.00;96187.59;5045993;28;20064;-49
2022/07/27 03:30:37;;;;;;;9.98;3.80;;;;;;;20.10;100.00;96189.28;5045455;28;20065;-49
2022/07/27 03:33:05;;;;;;;10.65;4.00;;;;;;;19.95;100.00;96202.09;5046422;28;20226;-47
2022/07/27 03:35:34;;;;;;;9.60;3.85;;;;;;;20.01;100.00;96195.09;5045115;28;20103;-49
2022/07/27 03:38:03;;;;;;;7.60;3.78;;;;;;;20.43;100.00;96190.19;5043835;28;20067;-53
2022/07/27 03:40:33;;;;;;;4.45;3.47;;;;;;;20.30;100.00;96186.53;5045280;28;20547;-47
2022/07/27 03:43:01;;;;;;;6.32;4.10;;;;;;;20.14;100.00;96192.38;5044025;28;20081;-50
2022/07/27 03:45:29;;;;;;;11.23;3.80;;;;;;;20.15;100.00;96192.16;5042253;28;20091;-52
2022/07/27 03:47:58;;;;;;;5.93;3.78;;;;;;;20.23;100.00;96184.91;5043891;28;20080;-48
2022/07/27 03:50:26;;;;;;;7.63;4.18;;;;;;;20.34;100.00;96185.09;5044992;28;20497;-46
2022/07/27 03:52:55;;;;;;;8.70;3.58;;;;;;;20.51;100.00;96189.97;5043265;28;20088;-46
2022/07/27 03:55:24;;;;;;;9.13;3.75;;;;;;;20.36;100.00;96187.53;5045846;28;20072;-48
2022/07/27 03:57:54;;;;;;;7.90;3.45;;;;;;;20.12;100.00;96195.25;5042333;28;20081;-52
2022/07/27 04:00:23;;;;;;;7.60;3.90;;;;;;;20.47;100.00;96181.50;5044126;28;20087;-48
2022/07/27 04:02:51;;;;;;;5.55;3.70;;;;;;;20.29;100.00;96181.38;5044175;28;20072;-47
2022/07/27 04:05:20;;;;;;;6.28;3.83;;;;;;;20.63;100.00;96174.88;5044149;28;20080;-56
2022/07/27 04:07:49;;;;;;;5.78;3.75;;;;;;;20.60;100.00;96168.06;5044058;28;20080;-58
2022/07/27 04:10:22;;;;;;;8.13;3.60;;;;;;;20.55;100.00;96180.50;5041522;28;20448;-47
2022/07/27 04:12:53;;;;;;;;;;;;;;;20.54;100.00;96177.00;5043440;28;20084;-57
2022/07/27 04:15:22;;;;;;;8.82;3.47;;;;;;;20.53;100.00;96177.19;5044832;28;20414;-48
2022/07/27 04:17:51;;;;;;;10.38;3.80;;;;;;;20.47;100.00;96175.31;5043554;28;20084;-48
2022/07/27 04:20:24;;;;;;;9.90;3.58;;;;;;;20.60;100.00;96172.63;5043670;28;20510;-50
2022/07/27 04:22:53;;;;;;;5.60;3.85;;;;;;;20.72;100.00;96167.41;5026779;28;20089;-47
2022/07/27 04:25:21;;;;;;;11.45;3.97;;;;;;;20.60;100.00;96165.41;5045379;28;20076;-49
2022/07/27 04:27:53;;;;;;;9.75;4.10;;;;;;;20.68;100.00;96161.66;5041987;28;20080;-49
2022/07/27 04:30:23;;;;;;;9.80;4.03;;;;;;;20.65;100.00;96164.78;5043508;28;20076;-49
2022/07/27 04:32:52;;;;;;;10.55;3.80;;;;;;;20.68;100.00;96166.16;5041377;28;20081;-52
2022/07/27 04:35:20;;;;;;;10.05;3.97;;;;;;;20.36;100.00;96168.78;5044866;28;20077;-52
2022/07/27 04:37:54;;;;;;;8.25;4.07;;;;;;;20.35;100.00;96167.97;5042830;28;20077;-56
2022/07/27 04:40:31;;;;;;;9.43;3.80;;;;;;;20.70;100.00;96167.59;5044549;28;20072;-49
2022/07/27 04:43:00;;;;;;;7.50;3.95;;;;;;;20.70;100.00;96167.59;5043499;28;20079;-49
2022/07/27 04:45:30;;;;;;;8.10;3.88;;;;;;;21.13;100.00;96166.06;5042782;28;20072;-46
2022/07/27 04:47:59;;;;;;;10.30;3.92;;;;;;;21.25;100.00;96169.69;5044272;28;20085;-47
2022/07/27 04:50:27;;;;;;;12.27;3.83;;;;;;;21.00;100.00;96164.34;5044036;28;20080;-49
2022/07/27 04:52:56;;;;;;;4.60;3.55;;;;;;;21.36;100.00;96166.34;5043945;28;20083;-48
2022/07/27 04:55:24;;;;;;;7.25;3.83;;;;;;;21.35;100.00;96170.06;5044271;28;20132;-46
2022/07/27 04:57:53;;;;;;;7.93;3.83;;;;;;;21.44;100.00;96175.97;5042469;28;20071;-53
2022/07/27 05:00:21;;;;;;;6.05;3.85;;;;;;;21.19;100.00;96176.75;5041395;28;20076;-50
2022/07/27 05:02:51;;;;;;;5.45;3.60;;;;;;;21.35;100.00;96183.47;5042184;28;20333;-48
2022/07/27 05:05:19;;;;;;;4.43;3.55;;;;;;;21.12;100.00;96183.22;5044136;28;20080;-50
2022/07/27 05:07:48;;;;;;;8.05;3.53;;;;;;;21.77;100.00;96189.06;5045485;28;20065;-49
2022/07/27 05:10:17;;;;;;;5.32;3.70;;;;;;;21.29;100.00;96189.69;5041124;28;20084;-51
2022/07/27 05:12:48;;;;;;;6.38;3.50;;;;;;;21.86;100.00;96203.88;5041649;28;20483;-52
2022/07/27 05:15:17;;;;;;;5.27;3.67;;;;;;;22.15;100.00;96206.88;5043665;28;20059;-47
2022/07/27 05:17:46;;;;;;;4.32;3.42;;;;;;;22.11;100.00;96205.66;5044425;28;20510;-48
2022/07/27 05:20:16;;;;;;;4.63;3.20;;;;;;;22.38;100.00;96198.16;5043143;28;20099;-52
2022/07/27 05:22:44;;;;;;;5.05;3.22;;;;;;;22.61;100.00;96197.44;5043582;28;20075;-52
2022/07/27 05:25:13;;;;;;;7.32;3.35;;;;;;;22.53;100.00;96193.19;5044493;28;20084;-51
2022/07/27 05:27:41;;;;;;;7.68;3.47;;;;;;;22.56;100.00;96198.13;5038863;28;20088;-48
2022/07/27 05:30:24;;;;;;;4.05;3.22;;;;;;;22.73;100.00;96206.38;5041427;28;20083;-48
2022/07/27 05:32:52;;;;;;;6.05;3.63;;;;;;;22.94;100.00;96203.22;5040638;28;20079;-50
2022/07/27 05:35:22;;;;;;;6.57;2.85;;;;;;;22.52;100.00;96199.63;5044220;28;20088;-50
2022/07/27 05:37:51;;;;;;;6.47;3.70;;;;;;;22.84;100.00;96204.78;5043224;28;20091;-58
2022/07/27 05:40:19;;;;;;;7.97;3.47;;;;;;;23.20;100.00;96209.28;5042701;28;20476;-48
2022/07/27 05:42:48;;;;;;;4.70;3.17;;;;;;;23.32;100.00;96202.03;5043994;28;20514;-57
2022/07/27 05:45:16;;;;;;;7.25;3.35;;;;;;;23.43;100.00;96209.31;5043602;28;20088;-50
2022/07/27 05:47:45;;;;;;;7.53;3.42;;;;;;;23.40;100.00;96212.47;5042044;28;20084;-49
2022/07/27 05:50:14;;;;;;;4.60;3.63;;;;;;;23.77;100.00;96209.59;5039921;28;22380;-49
2022/07/27 05:52:44;;;;;;;6.57;3.05;;;;;;;24.33;100.00;96213.53;5042270;28;20077;-54
2022/07/27 05:55:13;;;;;;;2.78;2.22;;;;;;;24.65;100.00;96207.75;5043366;28;20506;-54
2022/07/27 05:57:42;;;;;;;3.55;2.53;;;;;;;24.87;100.00;96194.41;5041590;28;20444;-49
2022/07/27 06:00:11;;;;;;;5.32;2.55;;;;;;;24.70;100.00;96202.44;5040746;28;20080;-53
2022/07/27 06:02:40;;;;;;;5.40;2.40;;;;;;;24.51;100.00;96201.81;5041045;28;20073;-46
2022/07/27 06:05:09;;;;;;;4.35;2.47;;;;;;;24.92;100.00;96208.00;5042675;28;21134;-49
2022/07/27 06:08:01;;;;;;;6.53;2.65;;;;;;;24.89;100.00;96213.88;5043417;28;20482;-47
2022/07/27 06:10:31;;;;;;;4.65;2.80;;;;;;;24.91;100.00;96219.81;5028360;28;20075;-51
2022/07/27 06:13:00;;;;;;;2.95;2.38;;;;;;;24.87;100.00;96214.09;5042921;28;20483;-52
2022/07/27 06:15:28;;;;;;;4.60;2.70;;;;;;;24.80;100.00;96210.72;5044774;28;20119;-49
2022/07/27 06:17:56;;;;;;;4.97;2.45;;;;;;;24.71;100.00;96206.78;5045271;28;20098;-50
2022/07/27 06:20:25;;;;;;;4.55;2.45;;;;;;;24.91;100.00;96202.81;5045299;28;20714;-50
2022/07/27 06:22:58;;;;;;;3.13;2.47;;;;;;;24.66;100.00;96205.84;5046869;28;20091;-52
2022/07/27 06:25:45;;;;;;;3.88;3.00;;;;;;;24.99;100.00;96207.84;5045573;28;20738;-50
2022/07/27 06:28:13;;;;;;;2.97;2.38;;;;;;;25.34;100.00;96211.19;5046199;28;20163;-49
2022/07/27 06:30:42;;;;;;;5.20;2.58;;;;;;;25.37;100.00;96209.06;5045430;28;20083;-49
2022/07/27 06:33:11;;;;;;;5.85;2.47;;;;;;;25.43;100.00;96203.53;5046943;28;20468;-52
2022/07/27 06:35:40;;;;;;;4.60;2.70;;;;;;;25.68;100.00;96200.41;5043548;28;20080;-50
2022/07/27 06:38:10;;;;;;;5.30;2.90;;;;;;;25.64;100.00;96199.25;5045494;28;20080;-50
2022/07/27 06:40:38;;;;;;;4.70;2.30;;;;;;;25.53;100.00;96201.00;5045340;28;20073;-49
2022/07/27 06:43:07;;;;;;;5.25;2.67;;;;;;;25.62;100.00;96197.88;5044623;28;20499;-54
2022/07/27 06:45:36;;;;;;;4.20;2.47;;;;;;;25.87;100.00;96200.97;5044886;28;20080;-55
2022/07/27 06:48:05;;;;;;;3.72;2.35;;;;;;;26.10;100.00;96207.25;5026850;28;20084;-50
2022/07/27 06:50:33;;;;;;;4.70;2.63;;;;;;;25.90;100.00;96205.88;5043353;28;20100;-56
2022/07/27 06:53:02;;;;;;;5.97;2.78;;;;;;;26.04;100.00;96211.75;5048176;28;20523;-51
2022/07/27 06:55:32;;;;;;;5.13;2.70;;;;;;;25.75;100.00;96206.44;5052307;28;20088;-54
2022/07/27 06:58:01;;;;;;;5.53;2.50;;;;;;;25.91;100.00;96207.53;5054590;28;20526;-51
2022/07/27 07:00:29;;;;;;;3.83;2.25;;;;;;;26.50;100.00;96213.22;5050416;28;20084;-54
2022/07/27 07:02:59;;;;;;;4.03;2.50;;;;;;;26.55;100.00;96207.06;5050562;28;20092;-56
2022/07/27 07:05:46;;;;;;;3.20;2.45;;;;;;;26.73;100.00;96204.00;5034341;28;20074;-53
2022/07/27 07:08:14;;;;;;;3.13;2.60;;;;;;;26.79;100.00;96199.47;5045854;28;20076;-52
2022/07/27 07:10:45;;;;;;;4.97;2.70;;;;;;;27.11;100.00;96198.72;5048854;28;20081;-51
2022/07/27 07:13:14;;;;;;;3.78;2.60;;;;;;;26.49;100.00;96194.53;5056215;28;20079;-48
2022/07/27 07:15:43;;;;;;;4.73;2.77;;;;;;;26.61;100.00;96181.72;5050662;28;20508;-47
2022/07/27 07:18:13;;;;;;;4.00;2.60;;;;;;;26.70;100.00;96187.47;5042600;28;20099;-50
2022/07/27 07:20:41;;;;;;;3.80;2.78;;;;;;;26.73;100.00;96186.97;5051495;28;20073;-52
2022/07/27 07:23:10;;;;;;;5.10;2.63;;;;;;;26.68;100.00;96186.94;5053324;28;20068;-54
2022/07/27 07:25:39;;;;;;;5.75;2.72;;;;;;;27.07;98.81;96193.00;5049682;28;20076;-46
2022/07/27 07:28:09;;;;;;;8.30;2.45;;;;;;;27.26;84.93;96179.16;5046644;28;20519;-51
2022/07/27 07:30:37;;;;;;;5.10;2.40;;;;;;;27.21;95.13;96185.31;5050285;28;20084;-51
2022/07/27 07:33:06;;;;;;;6.78;2.75;;;;;;;27.35;94.38;96183.00;5050352;28;20084;-55
2022/07/27 07:35:34;;;;;;;7.20;2.55;;;;;;;27.25;79.05;96183.72;5047093;28;20071;-50
2022/07/27 07:38:03;;;;;;;3.72;2.03;;;;;;;27.59;72.52;96184.28;5050358;28;20186;-50
2022/07/27 07:40:32;;;;;;;8.05;2.30;;;;;;;27.55;65.27;96185.06;5047327;28;20087;-52
2022/07/27 07:43:13;;;;;;;5.63;2.30;;;;;;;27.11;70.92;96183.28;5047191;28;20048;-51
2022/07/27 07:45:42;;;;;;;3.70;2.67;;;;;;;26.56;74.37;96192.44;5046242;28;20099;-54
2022/07/27 07:48:20;;;;;;;4.43;2.30;;;;;;;27.52;68.93;96194.53;5051014;28;20080;-53
2022/07/27 07:50:49;;;;;;;4.47;2.28;;;;;;;27.29;76.94;96197.56;5046069;28;20085;-53
2022/07/27 07:53:20;;;;;;;2.67;1.95;;;;;;;27.57;76.16;96194.56;5048545;28;20079;-49
2022/07/27 07:55:49;;;;;;;3.50;1.98;;;;;;;26.91;75.99;96200.19;5044631;28;20201;-55
2022/07/27 07:58:19;;;;;;;3.25;2.10;;;;;;;27.27;80.28;96186.19;5052918;28;20076;-51
2022/07/27 08:00:47;;;;;;;5.28;2.13;;;;;;;27.72;81.76;96185.75;5045207;28;20077;-50
2022/07/27 08:03:16;;;;;;;3.13;2.35;;;;;;;27.12;100.00;96201.22;5045922;28;20072;-50
2022/07/27 08:05:44;;;;;;;5.15;2.70;;;;;;;26.80;94.93;96198.41;5045515;28;20080;-49
2022/07/27 08:08:13;;;;;;;3.30;2.28;;;;;;;26.68;100.00;96197.75;5046138;28;20099;-54
2022/07/27 08:10:41;;;;;;;5.88;2.50;;;;;;;26.72;100.00;96204.28;5044352;28;20111;-47
2022/07/27 08:13:10;;;;;;;2.83;2.00;;;;;;;27.20;92.41;96198.03;5046239;28;20084;-55
2022/07/27 08:15:39;;;;;;;3.67;2.30;;;;;;;26.82;97.99;96212.50;5044399;28;20081;-56
2022/07/27 08:18:08;;;;;;;2.92;2.08;;;;;;;27.25;95.08;96199.97;5045868;28;20519;-53
2022/07/27 08:20:37;;;;;;;4.40;2.20;;;;;;;27.79;83.61;96199.09;5043857;28;20108;-55
2022/07/27 08:23:05;;;;;;;10.70;2.30;;;;;;;27.41;78.33;96207.16;5043101;28;20087;-49
2022/07/27 08:25:34;;;;;;;4.05;2.10;;;;;;;27.40;77.05;96205.53;5042900;28;20060;-49
2022/07/27 08:28:02;;;;;;;4.55;2.08;;;;;;;27.33;82.13;96212.25;5047019;28;20379;-47
2022/07/27 08:30:31;;;;;;;4.07;1.95;;;;;;;27.31;75.86;96209.78;5046516;28;20084;-56
2022/07/27 08:33:04;;;;;;;6.25;2.20;;;;;;;27.76;69.69;96202.31;5045010;28;20087;-54
2022/07/27 08:35:33;;;;;;;6.35;2.53;;;;;;;27.95;74.72;96205.44;5044763;28;20080;-49
2022/07/27 08:38:03;;;;;;;4.95;2.45;;;;;;;27.57;82.97;96205.41;5049303;28;20076;-49
2022/07/27 08:40:32;;;;;;;;;;;;;;;27.37;97.00;96208.75;5042392;28;20084;-51
2022/07/27 08:43:09;;;;;;;4.40;2.15;;;;;;;27.13;85.92;96213.69;5045667;28;19959;-47
2022/07/27 08:45:40;;;;;;;3.90;2.50;;;;;;;27.26;100.00;96208.94;5043803;28;20087;-57
2022/07/27 08:48:14;;;;;;;4.32;2.88;;;;;;;27.18;100.00;96212.91;5036184;28;20503;-47
2022/07/27 08:50:48;;;;;;;3.80;2.20;;;;;;;27.27;94.88;96214.09;5041091;28;20542;-50
2022/07/27 08:53:17;;;;;;;3.55;2.22;;;;;;;27.71;98.51;96208.50;5044830;28;20570;-50
2022/07/27 08:55:46;;;;;;;5.05;2.17;;;;;;;27.36;93.25;96207.13;5043678;28;20091;-52
2022/07/27 08:58:15;;;;;;;3.28;2.17;;;;;;;27.44;90.25;96219.38;5040098;28;20503;-51
2022/07/27 09:00:46;;;;;;;5.50;2.40;;;;;;;27.94;88.22;96212.75;5043518;28;20519;-52
2022/07/27 09:03:17;;;;;;;6.20;2.45;;;;;;;28.01;92.19;96213.34;5044525;28;20111;-51
2022/07/27 09:05:51;;;;;;;3.85;2.40;;;;;;;28.45;84.39;96207.63;5042053;28;20084;-48
2022/07/27 09:08:22;;;;;;;3.03;2.53;;;;;;;28.78;72.41;96208.31;5045490;28;20080;-54
2022/07/27 09:10:53;;;;;;;5.45;2.47;;;;;;;28.95;75.21;96208.09;5043813;28;20085;-54
2022/07/27 09:13:24;;;;;;;5.05;2.65;;;;;;;28.74;67.50;96205.31;5045522;28;20076;-49
2022/07/27 09:15:55;;;;;;;2.97;2.30;;;;;;;28.42;59.05;96210.88;5041796;28;20134;-54
2022/07/27 09:18:45;;;;;;;3.17;2.42;;;;;;;28.94;60.27;96207.28;5041443;28;20120;-55
2022/07/27 09:21:15;;;;;;;3.60;2.30;;;;;;;29.05;58.63;96208.97;5041045;28;20563;-55
2022/07/27 09:23:47;;;;;;;3.20;2.40;;;;;;;29.34;60.71;96209.28;5044413;28;20072;-48
2022/07/27 09:26:18;;;;;;;3.80;2.17;;;;;;;29.78;59.30;96213.41;5043500;28;20088;-49
2022/07/27 09:29:04;;;;;;;12.13;2.33;;;;;;;29.98;56.01;96212.56;5045941;28;20084;-54
2022/07/27 09:31:33;;;;;;;3.03;2.10;;;;;;;29.60;54.21;96220.19;5043093;28;20080;-55
2022/07/27 09:34:03;;;;;;;4.03;2.30;;;;;;;29.71;58.39;96216.38;5042693;28;20470;-51
2022/07/27 09:36:31;;;;;;;;;;;;;;;29.74;53.24;96218.56;5042131;28;20962;-50
2022/07/27 09:39:02;;;;;;;5.35;2.25;;;;;;;29.84;53.60;96223.19;5043372;28;20421;-47
2022/07/27 09:41:49;;;;;;;3.58;2.50;;;;;;;29.83;48.20;96220.72;5043200;28;20470;-51
2022/07/27 09:44:18;;;;;;;5.50;2.28;;;;;;;30.00;47.97;96224.78;5042724;28;20333;-49
2022/07/27 09:47:21;;;;;;;3.40;2.10;;;;;;;29.97;50.86;96211.75;5042083;28;20099;-47
2022/07/27 09:49:51;;;;;;;3.58;2.05;;;;;;;29.76;49.91;96218.28;5040087;28;20087;-55
2022/07/27 09:52:22;;;;;;;;;;;;;;;29.63;52.27;96222.38;5047092;28;20084;-59
2022/07/27 09:54:51;;;;;;;6.07;2.10;;;;;;;29.99;52.21;96217.72;5043197;28;19972;-49
2022/07/27 09:57:20;;;;;;;2.70;2.10;;;;;;;29.98;51.06;96209.84;5047744;28;20172;-60
2022/07/27 09:59:48;;;;;;;4.05;2.10;;;;;;;29.26;52.63;96215.25;5043962;28;20077;-55
2022/07/27 10:02:17;;;;;;;3.50;1.83;;;;;;;29.92;51.93;96213.66;5048311;28;20076;-51
2022/07/27 10:04:47;;;;;;;4.93;2.50;;;;;;;30.41;48.91;96205.66;5047432;28;20591;-53
2022/07/27 10:07:19;;;;;;;4.32;2.05;;;;;;;30.42;49.72;96207.31;5046297;28;20088;-48
2022/07/27 10:09:47;;;;;;;4.80;1.95;;;;;;;30.50;44.94;96204.00;5047905;28;20080;-55
2022/07/27 10:12:15;;;;;;;3.08;1.90;;;;;;;30.11;43.11;96211.16;5043990;28;20088;-49
2022/07/27 10:14:45;;;;;;;4.30;1.95;;;;;;;30.28;42.92;96208.97;5045004;28;20125;-50
2022/07/27 10:17:13;;;;;;;3.08;1.67;;;;;;;30.35;42.89;96206.81;5048328;28;20087;-47
2022/07/27 10:19:46;;;;;;;2.30;1.92;;;;;;;30.27;43.91;96210.88;5047829;28;20080;-54
2022/07/27 10:22:15;;;;;;;2.17;1.80;;;;;;;30.17;44.02;96218.22;5043238;28;20092;-48
2022/07/27 10:24:44;;;;;;;5.65;2.10;;;;;;;30.30;46.21;96219.59;5047435;28;20516;-54
2022/07/27 10:27:21;;;;;;;3.30;1.85;;;;;;;30.15;44.25;96217.69;5044660;28;20084;-53
2022/07/27 10:29:51;;;;;;;6.88;1.55;;;;;;;30.73;43.17;96212.66;5048175;28;20459;-50
2022/07/27 10:32:26;;;;;;;2.85;2.00;;;;;;;30.18;43.06;96215.28;5044784;28;20085;-47
2022/07/27 10:34:55;;;;;;;11.98;2.05;;;;;;;30.60;42.49;96216.78;5042151;28;20109;-49
2022/07/27 10:37:27;;;;;;;3.30;1.67;;;;;;;30.47;45.07;96214.66;5048185;28;20452;-49
2022/07/27 10:42:45;;;;;;;1.77;1.55;;;;;;;29.79;43.74;96225.88;5044244;28;20718;-50
2022/07/27 10:45:21;;;;;;;4.25;1.83;;;;;;;30.40;42.44;96220.38;5043283;28;20081;-55
2022/07/27 10:47:51;;;;;;;3.17;1.90;;;;;;;30.83;39.64;96217.22;5044568;28;20087;-47
2022/07/27 10:50:23;;;;;;;2.33;1.95;;;;;;;30.39;42.19;96217.94;5047452;28;20710;-47
2022/07/27 10:52:54;;;;;;;2.72;1.65;;;;;;;30.47;43.05;96217.38;5047174;28;20482;-47
2022/07/27 10:55:48;;;;;;;2.70;2.00;;;;;;;30.44;43.83;96220.63;5050697;28;20077;-50
2022/07/27 10:58:46;;;;;;;2.40;1.70;;;;;;;30.80;39.91;96228.69;5048187;28;20092;-48
2022/07/27 11:01:16;;;;;;;2.28;1.80;;;;;;;30.54;40.69;96222.50;5040292;28;20081;-49
2022/07/27 11:03:51;;;;;;;;;;;;;;;30.54;40.37;96211.63;5052217;28;20073;-48
2022/07/27 11:06:28;;;;;;;3.90;2.03;;;;;;;31.40;39.73;96219.38;5052271;28;19960;-49
2022/07/27 11:09:16;;;;;;;5.90;1.80;;;;;;;30.86;40.26;96212.03;5049966;28;20080;-55
2022/07/27 11:12:08;;;;;;;3.33;1.80;;;;;;;30.88;43.65;96218.03;5046787;28;20087;-50
2022/07/27 11:14:48;;;;;;;5.07;1.90;;;;;;;30.76;38.63;96224.91;5051781;28;20075;-53
2022/07/27 11:17:18;;;;;;;2.60;1.70;;;;;;;31.85;38.61;96222.84;5048169;28;20073;-55
2022/07/27 11:20:07;;;;;;;5.25;1.80;;;;;;;32.08;38.65;96217.75;5044334;28;20072;-59
2022/07/27 11:22:37;;;;;;;2.05;1.80;;;;;;;31.73;37.57;96213.41;5045678;28;20084;-50
2022/07/27 11:25:25;;;;;;;7.32;2.03;;;;;;;31.99;36.89;96219.47;5045545;28;20083;-53
2022/07/27 11:27:55;;;;;;;7.22;1.95;;;;;;;31.39;38.47;96211.50;5048745;28;20084;-50
2022/07/27 11:30:25;;;;;;;;;;;;;;;31.77;37.87;96215.28;5045620;28;20084;-48
2022/07/27 11:32:54;;;;;;;2.00;1.80;;;;;;;31.96;39.43;96217.31;5045402;28;19959;-57
2022/07/27 11:35:23;;;;;;;4.20;1.58;;;;;;;31.42;39.66;96216.38;5044743;28;20080;-50
2022/07/27 11:37:59;;;;;;;2.38;1.70;;;;;;;31.37;39.83;96214.50;5045122;28;20092;-54
2022/07/27 11:40:28;;;;;;;4.20;1.90;;;;;;;31.71;38.28;96213.69;5045153;28;20148;-57
2022/07/27 11:43:36;;;;;;;2.28;1.52;;;;;;;31.42;38.43;96205.50;5047239;28;20095;-51
2022/07/27 11:46:25;;;;;;;3.25;1.75;;;;;;;32.49;37.60;96203.72;5046186;28;20067;-56
2022/07/27 11:48:56;;;;;;;3.03;1.90;;;;;;;32.57;35.82;96203.06;5047262;28;20530;-55